SBCB

Details ICAO SBCB (CFB)
Name CABO FRIO
Region Brazil
Timezone America/Sao_Paulo (UTC-2.0)
Plans Departing 25
Arriving 30
Stats Elevation 14 ft / 4 m (AMSL)
Location -22.921681° -42.074268°
Runways 1
Magnetic Variation 23.135° W
Sunrise 2017-12-17 07:59:43 UTC / 2017-12-17 05:59:43 Local
Sunset 2017-12-17 21:31:58 UTC / 2017-12-17 19:31:58 Local
Advertisement - Login to hide

Runways

ID Width Length Bearing (true) Bearing (mag) Surface Threshold Offset Overrun Length
10 98 ft / 30 m 5,574 ft / 1,699 m 75.53° 98.67° Asphalt 0 ft / 0 m 200 ft / 61 m
28 98 ft / 30 m 5,574 ft / 1,699 m 255.53° 278.67° Asphalt 0 ft / 0 m 200 ft / 61 m

Map

Weather


0- 5 10 15 20 25 30 35+ Temperature / ° C

Clouds and Precipitation
Forecast for 2017-12-18 00:00 UTC. Updated an hour ago

Ground ~20,000 ft ~40,000 ft Winds

METAR

SBCB 172000Z 07020KT CAVOK 29/21 Q1012

TAF

Not found

Frequencies

Tower 132.15 MHz RDO
Warning: Do not use this data for real-world aviation or navigation. No guarantee of current accuracy is given.